createdAt,value
2022-09-18T08:58:14.429Z,997.63
2022-09-18T08:59:14.328Z,997.64
2022-09-18T09:00:14.315Z,997.66
2022-09-18T09:01:14.338Z,997.69
2022-09-18T09:02:14.321Z,997.66
2022-09-18T09:03:14.325Z,997.62
2022-09-18T09:04:14.245Z,997.60
2022-09-18T09:05:14.231Z,997.57
2022-09-18T09:06:14.217Z,997.47
2022-09-18T09:07:14.201Z,997.48
2022-09-18T09:09:15.864Z,997.54
2022-09-18T09:10:12.591Z,997.57
2022-09-18T09:11:12.420Z,997.56
2022-09-18T09:12:12.413Z,997.62
2022-09-18T09:13:12.393Z,997.60
2022-09-18T09:14:12.457Z,997.61
2022-09-18T09:15:12.362Z,997.56
2022-09-18T09:16:12.444Z,997.63
2022-09-18T09:17:12.339Z,997.60
2022-09-18T09:18:12.319Z,997.56
2022-09-18T09:19:12.306Z,997.52
2022-09-18T09:20:12.293Z,997.52
2022-09-18T09:21:12.330Z,997.50
2022-09-18T09:22:12.301Z,997.51
2022-09-18T09:23:12.256Z,997.48
2022-09-18T09:24:12.242Z,997.53
2022-09-18T09:25:12.247Z,997.49
2022-09-18T09:26:12.215Z,997.48
2022-09-18T09:27:12.258Z,997.47
2022-09-18T09:28:15.786Z,997.48
2022-09-18T09:29:12.178Z,997.51
2022-09-18T09:30:12.250Z,997.46
2022-09-18T09:31:12.231Z,997.52
2022-09-18T09:32:12.141Z,997.54
2022-09-18T09:33:12.133Z,997.54
2022-09-18T09:34:12.114Z,997.61
2022-09-18T09:35:12.131Z,997.63
2022-09-18T09:36:12.099Z,997.64
2022-09-18T09:37:12.076Z,997.60
2022-09-18T09:38:12.076Z,997.63
2022-09-18T09:39:12.051Z,997.61
2022-09-18T09:40:12.081Z,997.61
2022-09-18T09:41:12.027Z,997.60
2022-09-18T09:42:12.011Z,997.62
2022-09-18T09:43:12.035Z,997.59
2022-09-18T09:44:12.010Z,997.55
2022-09-18T09:45:11.976Z,997.53
2022-09-18T09:46:12.118Z,997.55
2022-09-18T09:47:13.075Z,997.55
2022-09-18T09:48:12.001Z,997.52
2022-09-18T09:49:11.927Z,997.52
2022-09-18T09:50:12.071Z,997.54
2022-09-18T09:51:11.907Z,997.58
2022-09-18T09:52:12.003Z,997.54
2022-09-18T09:53:11.873Z,997.54
2022-09-18T09:54:11.859Z,997.58
2022-09-18T09:55:11.853Z,997.58
2022-09-18T09:56:12.332Z,997.53
2022-09-18T09:57:11.825Z,997.54
2022-09-18T09:58:11.809Z,997.51
2022-09-18T09:59:11.800Z,997.52
2022-09-18T10:00:11.788Z,997.46
2022-09-18T10:01:11.902Z,997.49
2022-09-18T10:02:11.960Z,997.48
2022-09-18T10:03:11.752Z,997.44
2022-09-18T10:04:11.739Z,997.48
2022-09-18T10:05:11.730Z,997.45
2022-09-18T10:06:11.774Z,997.48
2022-09-18T10:07:11.701Z,997.47
2022-09-18T10:08:11.689Z,997.48
2022-09-18T10:09:11.678Z,997.49
2022-09-18T10:10:11.665Z,997.43
2022-09-18T10:11:11.652Z,997.45
2022-09-18T10:12:11.677Z,997.48
2022-09-18T10:13:11.624Z,997.44
2022-09-18T10:14:11.625Z,997.41
2022-09-18T10:15:11.602Z,997.40
2022-09-18T10:16:11.610Z,997.41
2022-09-18T10:17:11.578Z,997.40
2022-09-18T10:18:16.139Z,997.41
2022-09-18T10:19:11.551Z,997.37
2022-09-18T10:20:11.539Z,997.39
2022-09-18T10:21:11.525Z,997.38
2022-09-18T10:22:11.509Z,997.39
2022-09-18T10:23:11.504Z,997.32
2022-09-18T10:24:11.535Z,997.38
2022-09-18T10:25:11.474Z,997.34
2022-09-18T10:26:11.464Z,997.29
2022-09-18T10:27:11.453Z,997.30
2022-09-18T10:28:11.437Z,997.32
2022-09-18T10:29:11.428Z,997.32
2022-09-18T10:30:11.452Z,997.36
2022-09-18T10:31:11.448Z,997.31
2022-09-18T10:32:11.386Z,997.31
2022-09-18T10:33:11.375Z,997.28
2022-09-18T10:34:11.472Z,997.27
2022-09-18T10:35:11.352Z,997.26
2022-09-18T10:36:11.337Z,997.30
2022-09-18T10:37:11.329Z,997.27
2022-09-18T10:38:11.314Z,997.25
2022-09-18T10:39:11.359Z,997.21
2022-09-18T10:40:11.357Z,997.19
2022-09-18T10:41:11.320Z,997.17
2022-09-18T10:42:11.262Z,997.20
2022-09-18T10:43:11.254Z,997.21
2022-09-18T10:44:11.243Z,997.20
2022-09-18T10:45:11.264Z,997.18
2022-09-18T10:46:11.246Z,997.21
2022-09-18T10:47:11.208Z,997.22
2022-09-18T10:48:11.190Z,997.21
2022-09-18T10:49:11.180Z,997.19
2022-09-18T10:50:11.246Z,997.20
2022-09-18T10:51:11.184Z,997.12
2022-09-18T10:52:11.142Z,997.14
2022-09-18T10:53:11.129Z,997.18
2022-09-18T10:54:11.116Z,997.12
2022-09-18T10:55:11.134Z,997.24
2022-09-18T10:56:11.114Z,997.19
2022-09-18T10:57:11.077Z,997.21
2022-09-18T10:58:11.063Z,997.21
2022-09-18T10:59:11.056Z,997.30
2022-09-18T11:00:11.040Z,997.25
2022-09-18T11:01:11.208Z,997.32
2022-09-18T11:02:11.034Z,997.28
2022-09-18T11:03:11.008Z,997.32
2022-09-18T11:04:10.993Z,997.30
2022-09-18T11:05:10.981Z,997.31
2022-09-18T11:06:11.058Z,997.34
2022-09-18T11:07:10.979Z,997.36
2022-09-18T11:08:10.940Z,997.33
2022-09-18T11:09:10.938Z,997.38
2022-09-18T11:10:10.977Z,997.30
2022-09-18T11:11:10.906Z,997.47
2022-09-18T11:12:10.958Z,997.51
2022-09-18T11:13:10.881Z,997.47
2022-09-18T11:14:10.868Z,997.33
2022-09-18T11:15:10.858Z,997.28
2022-09-18T11:16:10.881Z,997.30
2022-09-18T11:17:10.829Z,997.20
2022-09-18T11:18:10.821Z,997.12
2022-09-18T11:19:10.831Z,997.06
2022-09-18T11:20:10.910Z,996.95
2022-09-18T11:21:10.780Z,996.84
2022-09-18T11:22:10.853Z,996.79
2022-09-18T11:23:10.798Z,996.72
2022-09-18T11:24:10.771Z,996.74
2022-09-18T11:25:10.762Z,996.76
2022-09-18T11:26:10.717Z,996.80
2022-09-18T11:27:10.706Z,996.85
2022-09-18T11:28:10.700Z,996.89
2022-09-18T11:29:10.709Z,996.94
2022-09-18T11:30:10.740Z,996.96
2022-09-18T11:31:10.705Z,996.96
2022-09-18T11:32:10.662Z,997.02
2022-09-18T11:33:10.634Z,996.97
2022-09-18T11:34:10.626Z,997.03
2022-09-18T11:35:10.638Z,997.01
2022-09-18T11:36:10.599Z,997.07
2022-09-18T11:37:10.583Z,997.08
2022-09-18T11:38:10.654Z,997.11
2022-09-18T11:39:10.561Z,997.14
2022-09-18T11:40:10.629Z,997.18
2022-09-18T11:41:10.579Z,997.16
2022-09-18T11:42:10.543Z,997.16
2022-09-18T11:43:10.517Z,997.13
2022-09-18T11:44:10.497Z,997.18
2022-09-18T11:45:10.498Z,997.14
2022-09-18T11:46:10.472Z,997.16
2022-09-18T11:47:10.496Z,997.18
2022-09-18T11:48:10.449Z,997.13
2022-09-18T11:49:10.434Z,997.12
2022-09-18T11:50:10.421Z,997.08
2022-09-18T11:51:10.466Z,996.96
2022-09-18T11:52:10.399Z,996.83
2022-09-18T11:53:10.385Z,996.79
2022-09-18T11:54:10.456Z,996.88
2022-09-18T11:55:10.375Z,996.87
2022-09-18T11:56:10.344Z,996.82
2022-09-18T11:57:10.364Z,996.89
2022-09-18T11:58:10.322Z,996.83
2022-09-18T11:59:10.311Z,996.87
2022-09-18T12:00:10.305Z,996.86
2022-09-18T12:01:10.285Z,996.84
2022-09-18T12:02:10.460Z,996.85
2022-09-18T12:03:10.316Z,996.77
2022-09-18T12:04:10.244Z,996.74
2022-09-18T12:05:10.240Z,996.69
2022-09-18T12:06:10.219Z,996.70
2022-09-18T12:07:10.215Z,996.76
2022-09-18T12:08:08.867Z,996.86
2022-09-18T12:09:08.919Z,996.84
2022-09-18T12:10:08.951Z,996.95
2022-09-18T12:11:08.803Z,996.92
2022-09-18T12:12:08.802Z,996.87
2022-09-18T12:13:08.777Z,996.95
2022-09-18T12:14:08.759Z,996.84
2022-09-18T12:15:08.750Z,996.86
2022-09-18T12:16:08.818Z,996.86
2022-09-18T12:17:08.791Z,996.85
2022-09-18T12:18:08.707Z,996.84
2022-09-18T12:19:08.787Z,996.86
2022-09-18T12:20:08.683Z,996.89
2022-09-18T12:21:08.670Z,996.90
2022-09-18T12:22:08.658Z,996.86
2022-09-18T12:23:08.801Z,996.85
2022-09-18T12:24:08.631Z,996.85
2022-09-18T12:25:08.616Z,996.84
2022-09-18T12:26:08.687Z,996.88
2022-09-18T12:27:08.590Z,996.81
2022-09-18T12:28:08.576Z,996.86
2022-09-18T12:29:08.621Z,996.81
2022-09-18T12:30:08.553Z,996.81
2022-09-18T12:31:08.592Z,996.77
2022-09-18T12:32:08.526Z,996.73
2022-09-18T12:33:08.511Z,996.68
2022-09-18T12:34:08.500Z,996.73
2022-09-18T12:35:08.517Z,996.72
2022-09-18T12:36:08.475Z,996.72
2022-09-18T12:37:08.458Z,996.69
2022-09-18T12:38:08.509Z,996.70
2022-09-18T12:39:12.794Z,996.68
2022-09-18T12:40:09.144Z,996.68
2022-09-18T12:41:09.079Z,996.68
2022-09-18T12:42:09.139Z,996.63
2022-09-18T12:43:09.052Z,996.65
2022-09-18T12:44:09.041Z,996.68
2022-09-18T12:45:09.023Z,996.60
2022-09-18T12:46:09.107Z,996.60
2022-09-18T12:47:08.999Z,996.66
2022-09-18T12:48:08.981Z,996.64
2022-09-18T12:49:08.974Z,996.64
2022-09-18T12:50:08.957Z,996.58
2022-09-18T12:51:09.101Z,996.58
2022-09-18T12:52:08.933Z,996.60
2022-09-18T12:53:10.079Z,996.56
2022-09-18T12:54:09.010Z,996.61
2022-09-18T12:55:08.894Z,996.59
2022-09-18T12:56:08.876Z,996.60
2022-09-18T12:57:08.901Z,996.62
2022-09-18T12:58:08.935Z,996.56
2022-09-18T12:59:08.868Z,996.56
2022-09-18T13:00:08.824Z,996.57
2022-09-18T13:01:08.891Z,996.56
2022-09-18T13:02:08.801Z,996.54
2022-09-18T13:03:08.830Z,996.50
2022-09-18T13:04:08.839Z,996.48
2022-09-18T13:05:08.761Z,996.49
2022-09-18T13:06:08.744Z,996.47
2022-09-18T13:07:08.731Z,996.47
2022-09-18T13:08:08.721Z,996.45
2022-09-18T13:09:08.708Z,996.41
2022-09-18T13:10:08.732Z,996.46
2022-09-18T13:11:08.758Z,996.43
2022-09-18T13:12:08.666Z,996.39
2022-09-18T13:13:08.668Z,996.39
2022-09-18T13:14:11.056Z,996.38
2022-09-18T13:15:08.627Z,996.38
2022-09-18T13:16:09.438Z,996.39
2022-09-18T13:17:09.334Z,996.36
2022-09-18T13:18:09.321Z,996.37
2022-09-18T13:19:09.302Z,996.36
2022-09-18T13:20:09.323Z,996.34
2022-09-18T13:21:09.281Z,996.39
2022-09-18T13:22:09.267Z,996.37
2022-09-18T13:23:09.282Z,996.36
2022-09-18T13:24:09.239Z,996.34
2022-09-18T13:25:09.228Z,996.38
2022-09-18T13:26:09.224Z,996.33
2022-09-18T13:27:09.201Z,996.34
2022-09-18T13:28:09.190Z,996.33
2022-09-18T13:29:09.174Z,996.33
2022-09-18T13:30:09.241Z,996.33
2022-09-18T13:31:09.202Z,996.27
2022-09-18T13:32:09.140Z,996.31
2022-09-18T13:33:09.119Z,996.36
2022-09-18T13:34:09.111Z,996.34
2022-09-18T13:35:09.100Z,996.39
2022-09-18T13:36:09.103Z,996.42
2022-09-18T13:37:09.066Z,996.42
2022-09-18T13:38:09.059Z,996.41
2022-09-18T13:39:09.076Z,996.45
2022-09-18T13:40:11.011Z,996.43
2022-09-18T13:41:09.016Z,996.40
2022-09-18T13:42:09.003Z,996.39
2022-09-18T13:43:08.989Z,996.37
2022-09-18T13:44:08.977Z,996.33
2022-09-18T13:45:08.962Z,996.32
2022-09-18T13:46:09.055Z,996.32
2022-09-18T13:47:08.942Z,996.28
2022-09-18T13:48:08.924Z,996.27
2022-09-18T13:49:08.910Z,996.26
2022-09-18T13:50:08.899Z,996.24
2022-09-18T13:51:08.885Z,996.20
2022-09-18T13:52:08.870Z,996.25
2022-09-18T13:53:08.855Z,996.27
2022-09-18T13:54:08.847Z,996.21
2022-09-18T13:55:08.833Z,996.22
2022-09-18T13:56:08.845Z,996.18
2022-09-18T13:57:08.833Z,996.14
2022-09-18T13:58:08.797Z,996.19
2022-09-18T13:59:08.785Z,996.22
2022-09-18T14:00:08.772Z,996.16
2022-09-18T14:01:08.997Z,996.20
2022-09-18T14:02:08.904Z,996.21
2022-09-18T14:03:08.754Z,996.17
2022-09-18T14:04:08.718Z,996.23
2022-09-18T14:05:08.704Z,996.19
2022-09-18T14:06:08.696Z,996.18
2022-09-18T14:07:08.678Z,996.13
2022-09-18T14:08:08.726Z,996.15
2022-09-18T14:09:08.652Z,996.14
2022-09-18T14:10:08.641Z,996.16
2022-09-18T14:11:16.403Z,996.12
2022-09-18T14:12:08.618Z,996.16
2022-09-18T14:13:08.600Z,996.15
2022-09-18T14:14:08.599Z,996.20
2022-09-18T14:15:08.579Z,996.17
2022-09-18T14:16:08.624Z,996.19
2022-09-18T14:17:08.556Z,996.15
2022-09-18T14:18:08.665Z,996.16
2022-09-18T14:19:08.528Z,996.14
2022-09-18T14:20:08.519Z,996.12
2022-09-18T14:21:08.506Z,996.10
2022-09-18T14:22:08.494Z,996.14
2022-09-18T14:23:08.498Z,996.18
2022-09-18T14:24:08.469Z,996.20
2022-09-18T14:25:08.452Z,996.23
2022-09-18T14:26:08.442Z,996.26
2022-09-18T14:27:08.428Z,996.28
2022-09-18T14:28:08.416Z,996.26
2022-09-18T14:29:08.425Z,996.25
2022-09-18T14:30:08.411Z,996.26
2022-09-18T14:31:08.421Z,996.21
2022-09-18T14:32:08.486Z,996.18
2022-09-18T14:33:08.347Z,996.22
2022-09-18T14:34:08.420Z,996.15
2022-09-18T14:35:08.324Z,996.21
2022-09-18T14:36:10.832Z,996.16
2022-09-18T14:37:08.299Z,996.15
2022-09-18T14:38:08.292Z,996.16
2022-09-18T14:39:08.277Z,996.12
2022-09-18T14:40:08.324Z,996.13
2022-09-18T14:41:08.248Z,996.06
2022-09-18T14:42:08.239Z,996.07
2022-09-18T14:43:08.227Z,996.08
2022-09-18T14:44:08.217Z,996.06
2022-09-18T14:45:08.206Z,996.02
2022-09-18T14:46:08.265Z,996.08
2022-09-18T14:47:08.178Z,996.03
2022-09-18T14:48:08.169Z,996.06
2022-09-18T14:49:08.163Z,996.12
2022-09-18T14:50:08.249Z,996.12
2022-09-18T14:51:08.132Z,996.16
2022-09-18T14:52:08.144Z,996.13
2022-09-18T14:53:08.105Z,996.08
2022-09-18T14:54:08.093Z,996.07
2022-09-18T14:55:08.079Z,996.08
2022-09-18T14:56:08.068Z,996.05
2022-09-18T14:57:08.079Z,996.13
2022-09-18T14:58:08.046Z,996.07
2022-09-18T14:59:08.035Z,996.10
2022-09-18T15:00:08.025Z,996.07
2022-09-18T15:01:08.048Z,996.08
2022-09-18T15:02:12.354Z,996.09
2022-09-18T15:03:07.991Z,996.10
2022-09-18T15:04:08.016Z,996.09
2022-09-18T15:05:07.957Z,996.11
2022-09-18T15:06:08.026Z,996.07
2022-09-18T15:07:07.962Z,996.08
2022-09-18T15:08:07.927Z,996.07
2022-09-18T15:09:07.910Z,996.08
2022-09-18T15:10:07.910Z,996.08
2022-09-18T15:11:07.885Z,996.09
2022-09-18T15:12:07.902Z,996.04
2022-09-18T15:13:07.861Z,996.05
2022-09-18T15:14:07.850Z,996.08
2022-09-18T15:15:07.837Z,996.04
2022-09-18T15:16:07.875Z,995.99
2022-09-18T15:17:07.837Z,995.97
2022-09-18T15:18:07.800Z,996.00
2022-09-18T15:19:07.786Z,996.00
2022-09-18T15:20:07.785Z,995.99
2022-09-18T15:21:07.764Z,996.02
2022-09-18T15:22:07.874Z,995.99
2022-09-18T15:23:07.743Z,995.95
2022-09-18T15:24:07.735Z,995.95
2022-09-18T15:25:07.719Z,995.96
2022-09-18T15:26:07.710Z,995.92
2022-09-18T15:27:07.726Z,995.93
2022-09-18T15:28:07.686Z,995.93
2022-09-18T15:29:07.675Z,995.95
2022-09-18T15:30:07.686Z,995.98
2022-09-18T15:31:07.711Z,995.93
2022-09-18T15:32:07.646Z,995.91
2022-09-18T15:33:07.638Z,995.94
2022-09-18T15:34:07.620Z,995.93
2022-09-18T15:35:07.613Z,995.99
2022-09-18T15:36:07.604Z,995.93
2022-09-18T15:37:07.584Z,995.94
2022-09-18T15:38:07.660Z,995.98
2022-09-18T15:39:07.563Z,995.98
2022-09-18T15:40:07.716Z,996.05
2022-09-18T15:41:07.538Z,995.98
2022-09-18T15:42:07.527Z,995.95
2022-09-18T15:43:07.532Z,995.98
2022-09-18T15:44:07.539Z,996.01
2022-09-18T15:45:07.495Z,995.99
2022-09-18T15:46:07.480Z,996.03
2022-09-18T15:47:07.493Z,996.05
2022-09-18T15:48:07.464Z,996.06
2022-09-18T15:49:07.445Z,996.08
2022-09-18T15:50:07.459Z,996.09
2022-09-18T15:51:07.417Z,996.14
2022-09-18T15:52:07.406Z,996.10
2022-09-18T15:53:07.393Z,996.05
2022-09-18T15:54:07.649Z,996.10
2022-09-18T15:55:07.368Z,996.17
2022-09-18T15:56:07.364Z,996.16
2022-09-18T15:57:07.342Z,996.12
2022-09-18T15:58:07.334Z,996.12
2022-09-18T15:59:07.318Z,996.10
2022-09-18T16:00:07.340Z,996.11
2022-09-18T16:01:07.418Z,996.13
2022-09-18T16:02:07.442Z,996.09
2022-09-18T16:03:07.267Z,996.14
2022-09-18T16:04:08.891Z,996.06
2022-09-18T16:05:07.241Z,996.05
2022-09-18T16:06:07.257Z,996.08
2022-09-18T16:07:07.221Z,996.02
2022-09-18T16:08:07.208Z,996.02
2022-09-18T16:09:07.243Z,996.03
2022-09-18T16:10:07.259Z,995.98
2022-09-18T16:11:07.194Z,995.96
2022-09-18T16:12:07.159Z,995.96
2022-09-18T16:13:07.138Z,995.92
2022-09-18T16:14:07.130Z,995.91
2022-09-18T16:15:07.141Z,995.96
2022-09-18T16:16:07.176Z,995.93
2022-09-18T16:17:07.087Z,995.92
2022-09-18T16:18:07.082Z,995.90
2022-09-18T16:19:07.064Z,995.86
2022-09-18T16:20:07.058Z,995.89
2022-09-18T16:21:07.044Z,995.91
2022-09-18T16:22:07.041Z,995.88
2022-09-18T16:23:07.016Z,995.95
2022-09-18T16:24:07.002Z,995.88
2022-09-18T16:25:06.988Z,995.93
2022-09-18T16:26:07.090Z,995.90
2022-09-18T16:27:06.965Z,995.94
2022-09-18T16:28:06.954Z,995.88
2022-09-18T16:29:06.939Z,995.90
2022-09-18T16:30:06.929Z,995.87
2022-09-18T16:31:06.985Z,995.85
2022-09-18T16:32:06.906Z,995.82
2022-09-18T16:33:06.890Z,995.82
2022-09-18T16:34:06.881Z,995.85
2022-09-18T16:35:06.868Z,995.85
2022-09-18T16:36:06.900Z,995.83
2022-09-18T16:37:06.840Z,995.83
2022-09-18T16:38:06.829Z,995.88
2022-09-18T16:39:06.815Z,995.84
2022-09-18T16:40:06.876Z,995.83
2022-09-18T16:41:06.788Z,995.87
2022-09-18T16:42:06.863Z,995.88
2022-09-18T16:43:06.765Z,995.91
2022-09-18T16:44:06.759Z,995.87
2022-09-18T16:45:06.739Z,995.85
2022-09-18T16:46:06.728Z,995.82
2022-09-18T16:47:06.791Z,995.90
2022-09-18T16:48:06.704Z,995.92
2022-09-18T16:49:06.693Z,995.91
2022-09-18T16:50:06.680Z,995.96
2022-09-18T16:51:06.666Z,995.88
2022-09-18T16:52:06.712Z,995.89
2022-09-18T16:53:06.642Z,995.90
2022-09-18T16:54:06.630Z,995.89
2022-09-18T16:55:06.617Z,995.93
2022-09-18T16:56:06.605Z,995.85
2022-09-18T16:57:06.588Z,995.86
2022-09-18T16:58:06.685Z,995.86
2022-09-18T16:59:06.568Z,995.89
2022-09-18T17:00:06.556Z,995.85
2022-09-18T17:01:06.610Z,995.92
2022-09-18T17:02:06.528Z,995.87
2022-09-18T17:03:06.595Z,995.86
2022-09-18T17:04:06.518Z,995.89
2022-09-18T17:05:06.491Z,995.91
2022-09-18T17:06:06.578Z,995.95
2022-09-18T17:07:06.468Z,995.97
2022-09-18T17:08:06.452Z,995.93
2022-09-18T17:09:06.465Z,995.96
2022-09-18T17:10:06.432Z,995.88
2022-09-18T17:11:06.415Z,995.87
2022-09-18T17:12:06.403Z,995.82
2022-09-18T17:13:06.391Z,995.84
2022-09-18T17:14:06.531Z,995.88
2022-09-18T17:15:06.363Z,995.85
2022-09-18T17:16:06.379Z,995.87
2022-09-18T17:17:06.385Z,995.88
2022-09-18T17:18:06.329Z,995.86
2022-09-18T17:19:06.322Z,995.89
2022-09-18T17:20:06.304Z,995.96
2022-09-18T17:21:06.288Z,996.09
2022-09-18T17:22:06.278Z,996.02
2022-09-18T17:23:06.264Z,996.03
2022-09-18T17:24:06.282Z,996.03
2022-09-18T17:25:06.240Z,996.05
2022-09-18T17:26:06.227Z,996.09
2022-09-18T17:27:06.214Z,996.08
2022-09-18T17:28:06.203Z,996.02
2022-09-18T17:29:06.195Z,996.04
2022-09-18T17:30:06.277Z,996.02
2022-09-18T17:31:06.213Z,996.05
2022-09-18T17:32:06.153Z,996.08
2022-09-18T17:33:06.144Z,996.09
2022-09-18T17:34:06.129Z,996.14
2022-09-18T17:35:06.172Z,996.11
2022-09-18T17:36:06.105Z,996.12
2022-09-18T17:37:06.091Z,996.14
2022-09-18T17:38:06.077Z,996.11
2022-09-18T17:39:06.067Z,996.10
2022-09-18T17:40:06.118Z,996.15
2022-09-18T17:41:06.071Z,996.12
2022-09-18T17:42:06.032Z,996.13
2022-09-18T17:43:06.015Z,996.14
2022-09-18T17:44:06.006Z,996.15
2022-09-18T17:45:06.003Z,996.13
2022-09-18T17:46:06.089Z,996.12
2022-09-18T17:47:05.967Z,996.12
2022-09-18T17:48:05.988Z,996.15
2022-09-18T17:49:05.946Z,996.19
2022-09-18T17:50:05.927Z,996.18
2022-09-18T17:51:05.921Z,996.21
2022-09-18T17:52:05.904Z,996.24
2022-09-18T17:53:05.917Z,996.24
2022-09-18T17:54:05.883Z,996.21
2022-09-18T17:55:05.866Z,996.25
2022-09-18T17:56:05.854Z,996.26
2022-09-18T17:57:05.841Z,996.25
2022-09-18T17:58:05.830Z,996.26
2022-09-18T17:59:05.842Z,996.25
2022-09-18T18:00:05.803Z,996.29
2022-09-18T18:01:05.842Z,996.24
2022-09-18T18:02:05.913Z,996.27
2022-09-18T18:03:05.768Z,996.33
2022-09-18T18:04:05.754Z,996.27
2022-09-18T18:05:05.753Z,996.31
2022-09-18T18:06:05.754Z,996.28
2022-09-18T18:07:05.721Z,996.23
2022-09-18T18:08:05.706Z,996.25
2022-09-18T18:09:05.692Z,996.24
2022-09-18T18:10:05.681Z,996.27
2022-09-18T18:11:05.671Z,996.30
2022-09-18T18:12:05.655Z,996.24
2022-09-18T18:13:05.642Z,996.26
2022-09-18T18:14:05.630Z,996.22
2022-09-18T18:15:05.618Z,996.25
2022-09-18T18:16:05.824Z,996.28
2022-09-18T18:17:05.592Z,996.34
2022-09-18T18:18:05.658Z,996.29
2022-09-18T18:19:05.727Z,996.30
2022-09-18T18:20:05.554Z,996.33
2022-09-18T18:21:05.542Z,996.26
2022-09-18T18:22:05.543Z,996.32
2022-09-18T18:23:05.517Z,996.29
2022-09-18T18:24:05.503Z,996.28
2022-09-18T18:25:05.492Z,996.27
2022-09-18T18:26:05.477Z,996.24
2022-09-18T18:27:05.499Z,996.25
2022-09-18T18:28:05.452Z,996.24
2022-09-18T18:29:05.443Z,996.21
2022-09-18T18:30:05.428Z,996.24
2022-09-18T18:31:05.580Z,996.31
2022-09-18T18:32:05.428Z,996.28
2022-09-18T18:33:05.417Z,996.30
2022-09-18T18:34:05.465Z,996.29
2022-09-18T18:35:05.366Z,996.35
2022-09-18T18:36:05.379Z,996.37
2022-09-18T18:37:05.341Z,996.42
2022-09-18T18:38:05.353Z,996.41
2022-09-18T18:39:05.321Z,996.43
2022-09-18T18:40:05.355Z,996.43
2022-09-18T18:41:05.293Z,996.44
2022-09-18T18:42:05.275Z,996.41
2022-09-18T18:43:05.324Z,996.46
2022-09-18T18:44:05.251Z,996.37
2022-09-18T18:45:05.244Z,996.37
2022-09-18T18:46:05.226Z,996.40
2022-09-18T18:47:05.296Z,996.39
2022-09-18T18:48:09.312Z,996.37
2022-09-18T18:49:05.294Z,996.40
2022-09-18T18:50:05.255Z,996.43
2022-09-18T18:51:05.166Z,996.45
2022-09-18T18:52:05.179Z,996.47
2022-09-18T18:53:05.144Z,996.44
2022-09-18T18:54:05.123Z,996.53
2022-09-18T18:55:05.155Z,996.52
2022-09-18T18:56:05.100Z,996.51
2022-09-18T18:57:05.089Z,996.54
2022-09-18T18:58:05.075Z,996.61
2022-09-18T18:59:05.091Z,996.59
2022-09-18T19:00:05.050Z,996.63
2022-09-18T19:01:05.094Z,996.61
2022-09-18T19:02:05.159Z,996.59
2022-09-18T19:03:05.012Z,996.56
2022-09-18T19:04:05.082Z,996.57
2022-09-18T19:05:04.989Z,996.56
2022-09-18T19:06:05.052Z,996.50
2022-09-18T19:07:04.968Z,996.50
2022-09-18T19:08:04.947Z,996.46
2022-09-18T19:09:04.938Z,996.47
2022-09-18T19:10:04.922Z,996.50
2022-09-18T19:11:04.920Z,996.48
2022-09-18T19:12:04.926Z,996.50
2022-09-18T19:13:04.885Z,996.46
2022-09-18T19:14:04.871Z,996.49
2022-09-18T19:15:04.861Z,996.43
2022-09-18T19:16:04.892Z,996.49
2022-09-18T19:17:04.861Z,996.47
2022-09-18T19:18:04.819Z,996.48
2022-09-18T19:19:04.859Z,996.51
2022-09-18T19:20:04.827Z,996.61
2022-09-18T19:21:04.784Z,996.58
2022-09-18T19:22:04.846Z,996.64
2022-09-18T19:23:04.759Z,996.60
2022-09-18T19:24:04.744Z,996.59
2022-09-18T19:25:04.762Z,996.62
2022-09-18T19:26:04.721Z,996.62
2022-09-18T19:27:04.737Z,996.63
2022-09-18T19:28:04.694Z,996.60
2022-09-18T19:29:04.695Z,996.60
2022-09-18T19:30:04.670Z,996.60
2022-09-18T19:31:04.778Z,996.60
2022-09-18T19:32:04.712Z,996.57
2022-09-18T19:33:04.635Z,996.61
2022-09-18T19:34:04.634Z,996.55
2022-09-18T19:35:04.607Z,996.55
2022-09-18T19:36:04.594Z,996.60
2022-09-18T19:37:11.053Z,996.51
2022-09-18T19:38:04.680Z,996.57
2022-09-18T19:39:04.556Z,996.54
2022-09-18T19:40:04.681Z,996.56
2022-09-18T19:41:04.534Z,996.53
2022-09-18T19:42:04.523Z,996.59
2022-09-18T19:43:04.534Z,996.62
2022-09-18T19:44:04.490Z,996.64
2022-09-18T19:45:04.513Z,996.63
2022-09-18T19:46:04.468Z,996.66
2022-09-18T19:47:04.470Z,996.67
2022-09-18T19:48:04.441Z,996.69
2022-09-18T19:49:04.533Z,996.72
2022-09-18T19:50:04.414Z,996.62
2022-09-18T19:51:04.404Z,996.65
2022-09-18T19:52:04.402Z,996.66
2022-09-18T19:53:04.382Z,996.64
2022-09-18T19:54:04.454Z,996.62
2022-09-18T19:55:04.380Z,996.68
2022-09-18T19:56:04.346Z,996.76
2022-09-18T19:57:04.330Z,996.64
2022-09-18T19:58:04.315Z,996.66
2022-09-18T19:59:04.468Z,996.64
2022-09-18T20:00:04.300Z,996.68
2022-09-18T20:01:04.351Z,996.64
2022-09-18T20:02:04.306Z,996.67
2022-09-18T20:03:04.260Z,996.71
2022-09-18T20:04:04.299Z,996.62
2022-09-18T20:05:04.262Z,996.61
2022-09-18T20:06:04.222Z,996.55
2022-09-18T20:07:04.212Z,996.60
2022-09-18T20:08:04.230Z,996.62
2022-09-18T20:09:04.186Z,996.58
2022-09-18T20:10:04.278Z,996.63
2022-09-18T20:11:04.162Z,996.65
2022-09-18T20:12:04.149Z,996.60
2022-09-18T20:13:04.140Z,996.64
2022-09-18T20:14:04.126Z,996.62
2022-09-18T20:15:04.140Z,996.65
2022-09-18T20:16:04.143Z,996.64
2022-09-18T20:17:04.092Z,996.73
2022-09-18T20:18:04.085Z,996.75
2022-09-18T20:19:04.067Z,996.73
2022-09-18T20:20:06.691Z,996.80
2022-09-18T20:21:04.044Z,996.67
2022-09-18T20:22:04.056Z,996.58
2022-09-18T20:23:04.030Z,996.63
2022-09-18T20:24:04.011Z,996.66
2022-09-18T20:25:04.000Z,996.70
2022-09-18T20:26:04.073Z,996.73
2022-09-18T20:27:04.004Z,996.64
2022-09-18T20:28:03.967Z,996.64
2022-09-18T20:29:03.973Z,996.58
2022-09-18T20:30:03.938Z,996.62
2022-09-18T20:31:03.974Z,996.61
2022-09-18T20:32:03.946Z,996.55
2022-09-18T20:33:03.909Z,996.62
2022-09-18T20:34:03.993Z,996.60
2022-09-18T20:35:03.889Z,996.59
2022-09-18T20:36:03.883Z,996.60
2022-09-18T20:37:03.868Z,996.64
2022-09-18T20:38:03.851Z,996.63
2022-09-18T20:39:03.996Z,996.58
2022-09-18T20:40:03.867Z,996.63
2022-09-18T20:41:06.804Z,996.59
2022-09-18T20:42:03.819Z,996.66
2022-09-18T20:43:03.800Z,996.67
2022-09-18T20:44:03.787Z,996.68
2022-09-18T20:45:03.802Z,996.79
2022-09-18T20:46:03.763Z,996.72
2022-09-18T20:47:03.831Z,996.76
2022-09-18T20:48:03.740Z,996.67
2022-09-18T20:49:03.857Z,996.66
2022-09-18T20:50:03.718Z,996.65
2022-09-18T20:51:03.712Z,996.60
2022-09-18T20:52:03.740Z,996.57
2022-09-18T20:53:03.686Z,996.61
2022-09-18T20:54:03.675Z,996.59
2022-09-18T20:55:03.665Z,996.59
2022-09-18T20:56:03.661Z,996.66
2022-09-18T20:57:03.670Z,996.61
2022-09-18T20:58:03.632Z,996.60
2022-09-18T20:59:03.624Z,996.56
2022-09-18T21:00:03.607Z,996.57
2022-09-18T21:01:03.709Z,996.65
2022-09-18T21:02:03.604Z,996.62
2022-09-18T21:03:03.582Z,996.65
2022-09-18T21:04:03.642Z,996.68
2022-09-18T21:05:03.559Z,996.68
2022-09-18T21:06:21.534Z,996.66
2022-09-18T21:07:03.534Z,996.66
2022-09-18T21:08:03.523Z,996.66
2022-09-18T21:09:03.516Z,996.64
2022-09-18T21:10:03.499Z,996.73
2022-09-18T21:11:03.490Z,996.73
2022-09-18T21:12:03.507Z,996.74
2022-09-18T21:13:03.472Z,996.79
2022-09-18T21:14:03.535Z,996.72
2022-09-18T21:15:03.449Z,996.79
2022-09-18T21:16:03.484Z,996.74
2022-09-18T21:17:03.451Z,996.83
2022-09-18T21:18:03.416Z,996.79
2022-09-18T21:19:03.469Z,996.78
2022-09-18T21:20:03.392Z,996.80
2022-09-18T21:21:03.388Z,996.81
2022-09-18T21:22:03.395Z,996.83
2022-09-18T21:23:03.364Z,996.84
2022-09-18T21:24:03.375Z,996.81
2022-09-18T21:25:03.343Z,996.86
2022-09-18T21:26:03.326Z,996.86
2022-09-18T21:27:03.323Z,996.83